Time;durP1;ratioP1;P1;durP2;ratioP2;P2;SDS_P1;SDS_P2;PMS_P1;PMS_P2;Temp;Humidity;BMP_temperature;BMP_pressure;BME280_temperature;BME280_humidity;BME280_pressure;Samples;Min_cycle;Max_cycle;Signal;HPM_P1;HPM_P2
2021/04/23 00:02:10;;;;;;;10.55;5.18;;;;;;;10.28;49.87;100110.66;4246748;33;35221;-96
2021/04/23 00:04:44;;;;;;;13.55;5.43;;;;;;;10.17;50.38;100105.69;4248082;33;34561;-96
2021/04/23 00:07:27;;;;;;;9.35;4.87;;;;;;;10.17;48.88;100108.37;4248401;33;34134;-96
2021/04/23 00:10:01;;;;;;;14.60;5.55;;;;;;;10.18;49.00;100113.59;4237074;33;33363;-88
2021/04/23 00:12:33;;;;;;;10.18;4.40;;;;;;;10.33;48.85;100113.72;4238697;33;34750;-96
2021/04/23 00:15:11;;;;;;;13.80;5.03;;;;;;;10.15;48.31;100118.50;4238346;33;33226;-88
2021/04/23 00:17:44;;;;;;;8.38;4.47;;;;;;;9.94;49.19;100122.66;4249985;33;34187;-88
2021/04/23 00:20:22;;;;;;;13.00;5.18;;;;;;;9.90;48.54;100121.31;4250273;33;33148;-94
2021/04/23 00:23:00;;;;;;;12.30;3.95;;;;;;;9.87;48.87;100121.66;4262484;33;33718;-86
2021/04/23 00:25:37;;;;;;;12.50;4.30;;;;;;;9.85;47.38;100120.97;4263006;33;34721;-96
2021/04/23 00:28:29;;;;;;;13.90;4.18;;;;;;;9.99;47.91;100114.84;4226876;33;35934;-92
2021/04/23 00:31:21;;;;;;;7.32;3.90;;;;;;;10.08;45.88;100118.37;4427453;28;33432;-96
2021/04/23 00:34:03;;;;;;;7.85;3.35;;;;;;;9.49;48.75;100121.38;4281370;28;31027;-96
2021/04/23 00:36:48;;;;;;;9.00;4.22;;;;;;;9.53;47.92;100122.72;4268305;33;34421;-94
2021/04/23 00:40:03;;;;;;;13.85;4.18;;;;;;;9.56;48.34;100114.28;4185834;28;32702;-94
2021/04/23 00:42:44;;;;;;;12.50;4.28;;;;;;;9.81;48.13;100117.78;4281129;33;33036;-96
2021/04/23 00:48:39;;;;;;;9.13;4.05;;;;;;;9.64;48.61;100117.00;4268022;33;35144;-93
2021/04/23 00:51:58;;;;;;;8.77;3.90;;;;;;;9.45;47.08;100111.97;4253459;33;33248;-95
2021/04/23 00:54:51;;;;;;;9.25;4.30;;;;;;;9.79;47.65;100118.97;4231261;33;32079;-96
2021/04/23 00:57:39;;;;;;;12.57;3.92;;;;;;;9.60;47.73;100126.44;4191411;34;33604;-90
2021/04/23 01:00:14;;;;;;;13.82;3.58;;;;;;;9.66;47.32;100125.75;4189396;34;33685;-90
2021/04/23 01:02:47;;;;;;;10.77;3.42;;;;;;;9.27;47.49;100121.09;4198442;28;33952;-88
2021/04/23 01:09:04;;;;;;;9.57;4.00;;;;;;;8.89;47.20;100122.59;4183528;34;33050;-96
2021/04/23 01:14:57;;;;;;;12.75;3.78;;;;;;;8.77;47.36;100135.53;4199600;28;33356;-96
2021/04/23 01:17:31;;;;;;;10.80;4.12;;;;;;;8.80;46.52;100136.06;4204949;34;33875;-91
2021/04/23 01:20:05;;;;;;;9.38;3.58;;;;;;;8.54;46.64;100124.56;4184104;34;35937;-93
2021/04/23 01:22:53;;;;;;;12.15;4.25;;;;;;;8.31;46.81;100125.16;4192145;34;35583;-96
2021/04/23 01:25:37;;;;;;;15.70;4.70;;;;;;;8.27;47.18;100118.41;4186616;34;33289;-94
2021/04/23 01:28:10;;;;;;;12.75;3.62;;;;;;;8.15;47.57;100120.53;4203413;34;33736;-96
2021/04/23 01:30:57;;;;;;;9.85;3.83;;;;;;;8.22;46.85;100118.87;4213849;33;33192;-96
2021/04/23 01:33:42;;;;;;;17.30;3.75;;;;;;;8.23;46.74;100117.91;4210633;33;34913;-85
2021/04/23 01:36:15;;;;;;;9.75;3.33;;;;;;;8.09;46.85;100110.44;4236930;33;34365;-96
2021/04/23 01:39:16;;;;;;;10.52;3.28;;;;;;;8.06;46.68;100102.69;4239999;33;37329;-88
2021/04/23 01:41:50;;;;;;;17.17;3.17;;;;;;;7.88;47.44;100111.69;4260902;33;33278;-91
2021/04/23 01:44:39;;;;;;;19.62;6.60;;;;;;;7.64;47.59;100111.56;4219203;33;35422;-87
2021/04/23 01:47:13;;;;;;;10.52;3.97;;;;;;;7.83;46.99;100107.78;4230898;33;34051;-96
2021/04/23 01:49:46;;;;;;;11.50;3.22;;;;;;;7.62;47.64;100106.34;4228735;33;34949;-95
2021/04/23 01:52:21;;;;;;;11.20;3.87;;;;;;;7.65;47.66;100107.84;4223986;33;33838;-96
2021/04/23 01:54:54;;;;;;;10.48;5.35;;;;;;;7.49;48.10;100114.00;4216445;33;34658;-91
2021/04/23 01:57:26;;;;;;;9.18;3.70;;;;;;;7.31;49.08;100111.34;4242435;33;33615;-88
2021/04/23 01:59:59;;;;;;;19.00;4.00;;;;;;;7.47;49.05;100110.59;4260958;33;33752;-96
2021/04/23 02:02:40;;;;;;;10.13;3.20;;;;;;;7.45;48.76;100112.63;4247739;33;36167;-89
2021/04/23 02:05:14;;;;;;;12.75;4.32;;;;;;;7.49;48.87;100109.44;4261998;33;33769;-96
2021/04/23 02:07:54;;;;;;;16.37;5.05;;;;;;;7.31;48.94;100111.34;4222323;33;33847;-92
2021/04/23 02:10:32;;;;;;;8.77;3.92;;;;;;;7.38;48.96;100112.38;4242256;33;33276;-96
2021/04/23 02:13:06;;;;;;;12.10;3.90;;;;;;;7.22;49.47;100113.97;4235985;33;33999;-96
2021/04/23 02:15:43;;;;;;;10.52;3.97;;;;;;;7.43;49.39;100110.91;4226926;33;34009;-96
2021/04/23 02:18:17;;;;;;;15.88;3.92;;;;;;;7.29;49.69;100124.94;4242905;33;32794;-86
2021/04/23 02:20:54;;;;;;;11.18;3.60;;;;;;;7.27;49.75;100115.34;4248388;33;34577;-95
2021/04/23 02:23:27;;;;;;;10.75;4.30;;;;;;;7.35;49.32;100123.47;4221969;33;35171;-95
2021/04/23 02:26:26;;;;;;;8.80;3.60;;;;;;;7.21;50.03;100119.50;4254523;33;34253;-96
2021/04/23 02:28:58;;;;;;;9.40;3.80;;;;;;;7.29;49.87;100114.19;4247450;33;35100;-95
2021/04/23 02:31:54;;;;;;;12.75;4.18;;;;;;;7.33;50.26;100122.78;4250238;33;33455;-93
2021/04/23 02:34:28;;;;;;;13.30;4.28;;;;;;;6.73;51.36;100116.25;4236400;33;35168;-86
2021/04/23 02:37:01;;;;;;;11.05;4.10;;;;;;;7.04;51.05;100116.69;4258204;33;33642;-96
2021/04/23 02:39:34;;;;;;;15.70;4.53;;;;;;;7.18;50.66;100123.34;4247630;33;33809;-92
2021/04/23 02:42:13;;;;;;;8.80;4.40;;;;;;;6.81;51.62;100116.31;4242528;33;34677;-94
2021/04/23 02:44:47;;;;;;;13.62;3.90;;;;;;;7.02;51.29;100124.06;4248404;33;32950;-96
2021/04/23 02:47:20;;;;;;;9.68;3.87;;;;;;;6.77;52.32;100117.63;4260293;33;33650;-93
2021/04/23 02:50:03;;;;;;;9.63;4.30;;;;;;;6.80;52.16;100125.37;4260444;33;34517;-92
2021/04/23 02:52:43;;;;;;;10.45;4.43;;;;;;;6.53;53.45;100132.50;4236153;33;33858;-94
2021/04/23 02:55:17;;;;;;;12.85;4.50;;;;;;;6.65;53.39;100146.56;4246619;33;34725;-93
2021/04/23 02:58:06;;;;;;;15.45;4.50;;;;;;;6.29;54.46;100148.34;4246878;33;34240;-93
2021/04/23 03:00:44;;;;;;;12.65;5.22;;;;;;;6.35;54.60;100151.25;4246615;33;33734;-94
2021/04/23 03:03:19;;;;;;;12.93;5.05;;;;;;;6.72;53.75;100149.47;4248294;33;32483;-95
2021/04/23 03:06:07;;;;;;;11.70;4.07;;;;;;;6.80;53.94;100151.41;4231787;33;34699;-93
2021/04/23 03:08:59;;;;;;;11.57;4.55;;;;;;;6.83;53.48;100146.56;4222418;33;34575;-93
2021/04/23 03:11:53;;;;;;;11.98;4.97;;;;;;;6.57;54.84;100151.81;4234991;33;33411;-91
2021/04/23 03:14:27;;;;;;;10.40;4.57;;;;;;;6.75;54.11;100165.31;4245248;33;33930;-93
2021/04/23 03:16:59;;;;;;;12.60;4.72;;;;;;;6.38;55.42;100163.56;4244493;33;34874;-91
2021/04/23 03:19:36;;;;;;;12.98;4.28;;;;;;;6.52;55.22;100165.72;4244770;33;33845;-91
2021/04/23 03:25:35;;;;;;;11.50;4.55;;;;;;;6.40;55.71;100177.66;4185138;28;34810;-95
2021/04/23 03:28:18;;;;;;;12.52;5.10;;;;;;;6.39;55.77;100172.44;4262231;33;36304;-94
2021/04/23 03:30:51;;;;;;;11.57;4.80;;;;;;;6.21;56.45;100175.06;4268408;33;34927;-93
2021/04/23 03:33:29;;;;;;;17.37;4.95;;;;;;;6.00;57.28;100166.28;4253196;33;31556;-87
2021/04/23 03:36:16;;;;;;;9.65;4.62;;;;;;;6.45;55.76;100171.84;4276201;33;32503;-88
2021/04/23 03:38:55;;;;;;;8.75;4.20;;;;;;;6.35;56.18;100171.91;4291681;33;33127;-93
2021/04/23 03:41:29;;;;;;;12.60;4.30;;;;;;;6.58;55.59;100168.81;4275832;33;33857;-94
2021/04/23 03:44:34;;;;;;;16.73;4.87;;;;;;;6.42;55.96;100181.06;4267548;33;36171;-91
2021/04/23 03:47:06;;;;;;;14.13;4.87;;;;;;;6.49;55.50;100175.91;4289679;33;34087;-87
2021/04/23 03:49:39;;;;;;;7.90;4.70;;;;;;;6.33;56.18;100181.94;4279271;33;34411;-94
2021/04/23 03:52:12;;;;;;;15.43;4.07;;;;;;;6.44;55.45;100173.69;4278772;33;34319;-93
2021/04/23 03:55:09;;;;;;;11.35;5.05;;;;;;;6.20;56.62;100176.94;4258693;33;35043;-93
2021/04/23 03:57:43;;;;;;;11.50;5.12;;;;;;;5.90;57.66;100186.03;4254756;33;32500;-96
2021/04/23 04:00:49;;;;;;;12.68;4.90;;;;;;;6.06;57.08;100185.44;4237289;33;33949;-96
2021/04/23 04:04:03;;;;;;;9.48;4.40;;;;;;;6.03;57.01;100191.12;4228361;33;35307;-89
2021/04/23 04:06:35;;;;;;;8.13;3.85;;;;;;;6.18;56.87;100195.88;4259210;33;33980;-88
2021/04/23 04:09:39;;;;;;;14.00;4.65;;;;;;;6.19;56.81;100205.59;4248288;33;35392;-86
2021/04/23 04:12:12;;;;;;;11.80;5.12;;;;;;;6.36;56.75;100205.78;4273942;33;34882;-85
2021/04/23 04:14:45;;;;;;;14.65;6.47;;;;;;;6.43;56.54;100209.56;4271369;33;35712;-92
2021/04/23 04:17:21;;;;;;;13.32;5.87;;;;;;;6.06;58.11;100213.13;4275629;33;33638;-91
2021/04/23 04:19:55;;;;;;;10.05;5.35;;;;;;;6.34;57.15;100223.91;4276636;33;33945;-94
2021/04/23 04:22:27;;;;;;;18.02;5.45;;;;;;;6.28;57.14;100225.34;4274353;33;34101;-95
2021/04/23 04:25:03;;;;;;;12.68;4.85;;;;;;;6.27;57.33;100217.44;4273245;33;34422;-94
2021/04/23 04:27:35;;;;;;;11.80;4.22;;;;;;;6.10;57.84;100233.31;4254125;33;34685;-86
2021/04/23 04:30:09;;;;;;;13.20;4.65;;;;;;;6.36;57.38;100236.19;4287001;33;33237;-93
2021/04/23 04:32:42;;;;;;;21.42;6.70;;;;;;;6.57;56.87;100242.31;4253531;33;34546;-93
2021/04/23 04:35:27;;;;;;;11.95;5.37;;;;;;;6.52;56.72;100251.66;4265227;33;36664;-89
2021/04/23 04:38:06;;;;;;;12.32;5.10;;;;;;;6.39;57.06;100255.69;4262248;33;33318;-96
2021/04/23 04:41:02;;;;;;;11.15;4.70;;;;;;;6.57;55.92;100253.03;4262785;33;32313;-96
2021/04/23 04:43:36;;;;;;;11.23;4.80;;;;;;;6.64;56.22;100248.78;4262573;33;34420;-86
2021/04/23 04:46:09;;;;;;;11.65;4.80;;;;;;;6.52;56.61;100259.69;4274799;33;33826;-86
2021/04/23 04:48:42;;;;;;;9.90;4.45;;;;;;;6.64;55.87;100265.72;4273140;33;34493;-96
2021/04/23 04:51:21;;;;;;;11.33;5.23;;;;;;;6.72;56.30;100273.03;4275000;33;33750;-96
2021/04/23 04:53:55;;;;;;;17.55;6.03;;;;;;;6.62;56.29;100261.53;4262952;33;34344;-96
2021/04/23 04:56:45;;;;;;;10.95;4.72;;;;;;;6.79;56.29;100278.69;4258541;33;32209;-96
2021/04/23 04:59:20;;;;;;;14.13;5.37;;;;;;;6.82;55.51;100283.75;4273446;33;32440;-96
2021/04/23 05:02:19;;;;;;;;;;;;;;;6.88;56.38;100283.16;4237475;33;20109;-96
2021/04/23 05:04:53;;;;;;;9.10;5.05;;;;;;;6.97;55.73;100292.16;4262704;33;32634;-96
2021/04/23 05:07:29;;;;;;;13.07;5.20;;;;;;;6.93;56.07;100290.75;4263083;33;33648;-91
2021/04/23 05:10:10;;;;;;;14.85;5.30;;;;;;;7.10;55.42;100286.44;4276973;33;33575;-90
2021/04/23 05:12:52;;;;;;;;;;;;;;;6.97;55.57;100294.84;4267170;33;32066;-96
2021/04/23 05:15:47;;;;;;;8.93;4.50;;;;;;;6.78;55.92;100304.72;4257689;33;33523;-96
2021/04/23 05:18:27;;;;;;;12.93;5.63;;;;;;;7.08;55.36;100316.16;4754854;27;34019;-95
2021/04/23 05:21:37;;;;;;;14.27;6.15;;;;;;;7.02;55.57;100322.97;4682383;27;20100;-91
2021/04/23 05:24:42;;;;;;;12.85;5.75;;;;;;;7.40;54.45;100321.00;4476224;28;20156;-96
2021/04/23 05:27:50;;;;;;;17.27;5.32;;;;;;;7.20;55.19;100314.94;4319104;27;32846;-96
2021/04/23 05:30:38;;;;;;;14.93;6.30;;;;;;;7.52;54.29;100318.09;4271895;33;32761;-96
2021/04/23 05:33:35;;;;;;;10.85;4.78;;;;;;;7.42;54.11;100327.09;4257834;33;35244;-93
2021/04/23 05:36:24;;;;;;;14.48;6.80;;;;;;;7.36;55.15;100324.16;4258352;33;34014;-95
2021/04/23 05:39:00;;;;;;;10.30;4.37;;;;;;;7.62;54.20;100323.38;4251225;33;32927;-96
2021/04/23 05:41:36;;;;;;;12.90;5.53;;;;;;;7.69;52.61;100328.00;4273129;33;32743;-96
2021/04/23 05:44:27;;;;;;;11.75;4.47;;;;;;;7.75;53.56;100335.47;4262474;33;32886;-88
2021/04/23 05:47:04;;;;;;;10.68;5.82;;;;;;;7.68;53.63;100336.22;4257687;33;33680;-90
2021/04/23 05:49:41;;;;;;;10.75;5.45;;;;;;;8.08;53.32;100334.88;4250858;33;34557;-95
2021/04/23 05:52:22;;;;;;;12.98;5.72;;;;;;;8.24;53.01;100335.00;4235766;33;34392;-93
2021/04/23 05:54:55;;;;;;;14.07;6.15;;;;;;;8.15;52.42;100335.13;4245256;33;33785;-87
2021/04/23 05:57:29;;;;;;;21.08;6.78;;;;;;;8.14;52.40;100339.63;4258458;33;34324;-93
2021/04/23 06:00:06;;;;;;;15.07;6.15;;;;;;;7.97;53.54;100333.28;4248626;33;34328;-92
2021/04/23 06:02:51;;;;;;;17.67;6.20;;;;;;;8.12;54.53;100333.56;4283056;33;35368;-90
2021/04/23 06:05:32;;;;;;;13.35;5.45;;;;;;;8.55;52.85;100329.16;4258942;33;35227;-95
2021/04/23 06:08:19;;;;;;;19.20;5.95;;;;;;;8.77;50.86;100330.47;4239223;33;33827;-93
2021/04/23 06:10:52;;;;;;;10.38;4.87;;;;;;;9.08;52.12;100329.91;4262426;33;34566;-92
2021/04/23 06:13:24;;;;;;;14.93;4.87;;;;;;;9.12;50.62;100327.72;4261318;33;33648;-88
2021/04/23 06:16:05;;;;;;;11.85;5.10;;;;;;;9.15;51.20;100322.00;4276155;33;32801;-94
2021/04/23 06:18:41;;;;;;;13.57;4.95;;;;;;;9.37;50.70;100342.09;4263733;33;34152;-91
2021/04/23 06:21:15;;;;;;;10.30;4.25;;;;;;;9.54;51.08;100334.91;4269328;33;35434;-89
2021/04/23 06:23:48;;;;;;;14.43;5.45;;;;;;;9.71;49.25;100347.44;4268016;33;32738;-93
2021/04/23 06:26:27;;;;;;;11.25;4.93;;;;;;;9.82;49.75;100350.78;4261136;33;33354;-96
2021/04/23 06:29:03;;;;;;;7.60;4.25;;;;;;;10.17;50.69;100359.59;4245505;33;33237;-93
2021/04/23 06:32:17;;;;;;;16.20;5.28;;;;;;;10.21;47.40;100364.47;4234169;33;34054;-93
2021/04/23 06:34:58;;;;;;;16.55;5.87;;;;;;;10.15;46.66;100364.28;4244937;33;35004;-93
2021/04/23 06:37:48;;;;;;;15.35;6.05;;;;;;;9.96;48.28;100370.91;4245345;33;33736;-96
2021/04/23 06:40:20;;;;;;;10.98;5.50;;;;;;;10.14;47.32;100371.56;4243902;33;32714;-93
2021/04/23 06:42:59;;;;;;;11.82;5.45;;;;;;;10.20;46.57;100384.38;4222607;33;34286;-93
2021/04/23 06:45:32;;;;;;;10.30;5.22;;;;;;;10.18;48.36;100381.03;4224237;33;36381;-93
2021/04/23 06:48:16;;;;;;;17.87;6.35;;;;;;;10.15;47.08;100383.19;4239448;33;33825;-94
2021/04/23 06:50:50;;;;;;;12.15;5.32;;;;;;;10.16;48.04;100376.78;4233996;33;32833;-94
2021/04/23 06:53:34;;;;;;;14.43;5.25;;;;;;;10.28;47.37;100383.53;4235832;33;33850;-93
2021/04/23 06:56:07;;;;;;;11.43;5.62;;;;;;;10.53;46.86;100383.56;4223389;33;33445;-93
2021/04/23 06:58:59;;;;;;;11.98;5.03;;;;;;;10.92;47.04;100385.47;4273805;33;34944;-94
2021/04/23 07:01:34;;;;;;;13.60;5.32;;;;;;;10.81;46.24;100385.84;4288281;33;32798;-94
2021/04/23 07:04:18;;;;;;;9.13;5.47;;;;;;;11.11;45.83;100381.53;4227017;33;35002;-94
2021/04/23 07:06:52;;;;;;;10.35;4.93;;;;;;;11.23;44.63;100388.22;4276960;33;35011;-95
2021/04/23 07:09:29;;;;;;;20.62;5.60;;;;;;;11.44;45.19;100384.91;4278172;33;34657;-94
2021/04/23 07:12:02;;;;;;;8.70;4.18;;;;;;;11.54;43.29;100389.25;4264881;33;34591;-87
2021/04/23 07:14:37;;;;;;;14.23;4.80;;;;;;;11.57;44.37;100395.19;4288063;33;33960;-96
2021/04/23 07:17:11;;;;;;;11.85;4.75;;;;;;;11.59;45.08;100390.41;4271808;33;34210;-94
2021/04/23 07:20:00;;;;;;;10.50;4.57;;;;;;;11.68;43.02;100388.50;4278589;33;33009;-91
2021/04/23 07:22:37;;;;;;;12.93;5.32;;;;;;;12.10;45.25;100394.50;4265230;33;33624;-94
2021/04/23 07:25:22;;;;;;;12.13;4.75;;;;;;;11.94;43.83;100396.31;4227626;33;32229;-86
2021/04/23 07:27:59;;;;;;;15.32;5.43;;;;;;;12.11;41.91;100401.59;4256905;33;33086;-92
2021/04/23 07:30:38;;;;;;;11.73;4.78;;;;;;;12.27;41.95;100397.91;4231200;33;33631;-93
2021/04/23 07:33:14;;;;;;;16.08;5.07;;;;;;;11.98;42.01;100402.22;4232147;33;33538;-90
2021/04/23 07:36:03;;;;;;;9.10;3.90;;;;;;;11.94;43.26;100390.06;4273387;33;34158;-94
2021/04/23 07:38:36;;;;;;;14.27;5.20;;;;;;;12.14;40.66;100393.97;4261672;33;32958;-90
2021/04/23 07:44:50;;;;;;;10.10;4.82;;;;;;;11.84;42.21;100406.50;4272553;33;34121;-89
2021/04/23 07:47:24;;;;;;;14.13;4.60;;;;;;;11.80;41.00;100402.47;4274596;33;33804;-94
2021/04/23 07:49:59;;;;;;;9.07;4.07;;;;;;;11.58;42.39;100401.44;4261522;33;34332;-89
2021/04/23 07:52:35;;;;;;;12.27;5.40;;;;;;;11.80;41.69;100414.16;4252792;33;34381;-95
2021/04/23 07:55:15;;;;;;;16.20;5.18;;;;;;;11.92;42.57;100413.75;4270871;33;33173;-95
2021/04/23 07:57:50;;;;;;;10.02;4.53;;;;;;;12.09;41.32;100409.91;4272661;33;34428;-92
2021/04/23 08:00:23;;;;;;;13.13;4.97;;;;;;;12.53;40.47;100417.34;4248407;33;33383;-93
2021/04/23 08:03:00;;;;;;;8.15;4.60;;;;;;;12.28;39.67;100414.00;4263495;33;33544;-92
2021/04/23 08:05:33;;;;;;;10.38;4.37;;;;;;;12.25;40.83;100416.25;4273409;33;33643;-93
2021/04/23 08:08:06;;;;;;;12.55;4.40;;;;;;;12.22;40.26;100430.16;4240018;33;33897;-86
2021/04/23 08:11:07;;;;;;;12.95;4.32;;;;;;;12.38;39.10;100424.59;4305911;27;37251;-87
2021/04/23 08:13:41;;;;;;;11.85;4.37;;;;;;;12.39;39.49;100430.84;4289337;33;32666;-93
2021/04/23 08:16:17;;;;;;;11.20;4.80;;;;;;;12.75;39.85;100420.16;4289566;33;33374;-95
2021/04/23 08:18:54;;;;;;;10.20;4.03;;;;;;;12.98;39.59;100416.53;4293560;33;33766;-87
2021/04/23 08:21:27;;;;;;;16.90;4.70;;;;;;;13.34;38.51;100418.53;4319653;33;33729;-90
2021/04/23 08:24:02;;;;;;;8.85;4.70;;;;;;;13.25;38.72;100426.75;4316805;33;33597;-86
2021/04/23 08:26:38;;;;;;;12.10;4.57;;;;;;;13.76;36.76;100420.50;4294944;33;31819;-87
2021/04/23 08:29:26;;;;;;;15.50;5.35;;;;;;;13.93;37.56;100420.25;4279719;33;35139;-92
2021/04/23 08:32:02;;;;;;;11.35;5.72;;;;;;;14.27;39.06;100430.41;4280308;33;34490;-93
2021/04/23 08:34:39;;;;;;;11.73;5.22;;;;;;;14.52;37.70;100424.59;4290444;33;33947;-93
2021/04/23 08:37:13;;;;;;;8.00;4.28;;;;;;;14.98;36.28;100421.38;4292487;33;33769;-88
2021/04/23 08:39:46;;;;;;;6.32;3.67;;;;;;;14.30;34.62;100413.72;4302425;33;35397;-95
2021/04/23 08:42:22;;;;;;;12.85;5.15;;;;;;;14.07;35.47;100426.66;4302863;33;33741;-93
2021/04/23 08:44:59;;;;;;;11.55;4.43;;;;;;;14.45;36.75;100418.25;4289419;33;33787;-86
2021/04/23 08:47:55;;;;;;;11.18;4.78;;;;;;;14.20;34.33;100417.81;4297524;33;37275;-95
2021/04/23 08:50:27;;;;;;;12.63;4.47;;;;;;;14.09;35.58;100432.75;4302555;33;33740;-86
2021/04/23 08:53:00;;;;;;;14.63;5.62;;;;;;;13.92;37.73;100437.59;4278373;33;34923;-86
2021/04/23 08:55:39;;;;;;;11.05;4.75;;;;;;;13.98;35.76;100427.81;4290532;33;34491;-95
2021/04/23 08:58:13;;;;;;;10.23;4.37;;;;;;;13.89;36.19;100427.09;4289294;33;32031;-93
2021/04/23 09:00:47;;;;;;;10.57;4.45;;;;;;;14.75;34.18;100431.69;4301299;33;33651;-92
2021/04/23 09:03:22;;;;;;;9.40;4.32;;;;;;;14.83;33.38;100428.81;4275772;33;34794;-94
2021/04/23 09:06:08;;;;;;;15.05;4.28;;;;;;;14.48;34.11;100426.00;4290309;33;34454;-96
2021/04/23 09:08:56;;;;;;;11.90;4.32;;;;;;;14.85;35.67;100415.84;4288791;33;33623;-94
2021/04/23 09:11:43;;;;;;;6.87;4.10;;;;;;;14.73;36.60;100417.41;4302067;33;34795;-92
2021/04/23 09:14:20;;;;;;;8.35;3.80;;;;;;;14.83;32.79;100418.78;4292472;33;34726;-93
2021/04/23 09:16:59;;;;;;;5.78;3.72;;;;;;;15.05;33.06;100412.41;4291509;33;33163;-95
2021/04/23 09:19:37;;;;;;;13.02;4.78;;;;;;;14.98;34.45;100409.63;4278562;33;32594;-93
2021/04/23 09:22:22;;;;;;;14.23;4.57;;;;;;;15.40;33.78;100393.31;4278292;33;35530;-92
2021/04/23 09:25:03;;;;;;;9.15;4.10;;;;;;;15.50;33.66;100393.78;4283914;33;33920;-94
2021/04/23 09:27:42;;;;;;;10.05;5.28;;;;;;;15.88;32.35;100401.44;4268570;33;34213;-94
2021/04/23 09:30:25;;;;;;;13.30;4.53;;;;;;;16.08;35.10;100398.78;4261354;33;32976;-94
2021/04/23 09:33:01;;;;;;;11.90;4.10;;;;;;;15.92;34.00;100399.16;4267989;33;33909;-88
2021/04/23 09:35:37;;;;;;;8.55;3.90;;;;;;;15.88;33.60;100393.28;4267057;33;33822;-93
2021/04/23 09:38:19;;;;;;;8.18;3.62;;;;;;;16.25;35.18;100385.56;4283426;33;34359;-93
2021/04/23 09:40:55;;;;;;;14.05;4.37;;;;;;;16.59;32.00;100389.97;4249859;33;34812;-95
2021/04/23 09:43:39;;;;;;;12.18;4.68;;;;;;;16.84;32.93;100377.53;4272651;33;34509;-93
2021/04/23 09:46:32;;;;;;;10.15;4.97;;;;;;;16.97;31.75;100374.81;4261789;33;34362;-93
2021/04/23 09:49:22;;;;;;;12.30;4.15;;;;;;;16.83;31.68;100373.16;4269350;33;34424;-94
2021/04/23 09:51:56;;;;;;;12.02;4.15;;;;;;;16.26;33.75;100383.66;4282672;33;33847;-87
2021/04/23 09:54:33;;;;;;;7.82;4.10;;;;;;;16.21;30.70;100382.44;4270388;33;33605;-92
2021/04/23 09:57:14;;;;;;;6.62;4.25;;;;;;;16.39;36.90;100387.25;4290950;33;34913;-88
2021/04/23 09:59:53;;;;;;;9.27;4.53;;;;;;;17.24;32.28;100378.28;4310749;33;33222;-94
2021/04/23 10:02:31;;;;;;;10.50;4.32;;;;;;;17.82;32.35;100379.28;4290193;33;33870;-94
2021/04/23 10:05:08;;;;;;;14.10;4.50;;;;;;;17.07;29.72;100377.09;4288644;33;33513;-93
2021/04/23 10:07:41;;;;;;;11.15;5.25;;;;;;;17.10;32.51;100374.75;4303360;33;35308;-93
2021/04/23 10:10:24;;;;;;;12.63;4.18;;;;;;;17.34;31.11;100385.19;4291459;33;33849;-93
2021/04/23 10:13:02;;;;;;;7.47;4.28;;;;;;;17.68;29.85;100378.53;4304754;33;31506;-91
2021/04/23 10:15:41;;;;;;;10.98;5.05;;;;;;;17.83;32.03;100373.59;4290017;33;32392;-94
2021/04/23 10:18:17;;;;;;;8.52;4.68;;;;;;;17.59;30.43;100371.59;4279878;33;33222;-93
2021/04/23 10:20:56;;;;;;;7.40;3.90;;;;;;;17.25;30.53;100360.00;4303546;33;33838;-92
2021/04/23 10:23:32;;;;;;;14.73;5.25;;;;;;;17.28;29.08;100370.50;4303904;33;33545;-94
2021/04/23 10:26:06;;;;;;;8.68;4.78;;;;;;;17.68;31.41;100370.31;4301760;33;33799;-93
2021/04/23 10:28:42;;;;;;;6.45;4.30;;;;;;;17.56;30.07;100355.66;4272594;33;34102;-92
2021/04/23 10:31:16;;;;;;;6.37;2.80;;;;;;;17.89;31.41;100365.53;4284145;33;33940;-93
2021/04/23 10:33:50;;;;;;;6.90;3.75;;;;;;;17.32;27.04;100357.25;4289495;33;34109;-93
2021/04/23 10:36:46;;;;;;;11.73;5.25;;;;;;;17.96;29.28;100352.69;4289587;33;32963;-93
2021/04/23 10:39:34;;;;;;;8.87;5.77;;;;;;;18.53;27.97;100345.28;4299588;33;36073;-92
2021/04/23 10:42:48;;;;;;;6.95;3.92;;;;;;;18.33;27.24;100355.56;4281342;33;35391;-94
2021/04/23 10:45:33;;;;;;;8.30;4.78;;;;;;;18.56;26.98;100354.94;4292230;33;34651;-95
2021/04/23 10:48:12;;;;;;;9.52;4.57;;;;;;;18.55;27.22;100352.41;4316881;33;33652;-94
2021/04/23 10:50:56;;;;;;;12.57;5.62;;;;;;;17.23;29.60;100353.91;4304472;33;35447;-93
2021/04/23 10:53:42;;;;;;;6.85;4.72;;;;;;;17.52;30.38;100354.44;4290804;33;34744;-92
2021/04/23 10:56:34;;;;;;;10.10;4.10;;;;;;;17.10;30.57;100363.00;4294806;33;32693;-94
2021/04/23 10:59:32;;;;;;;11.32;3.95;;;;;;;17.91;27.29;100364.31;4296775;33;32857;-95
2021/04/23 11:02:18;;;;;;;5.70;3.70;;;;;;;18.45;27.11;100352.94;4302974;33;34399;-95
2021/04/23 11:04:58;;;;;;;6.43;3.08;;;;;;;19.47;27.50;100360.66;4307679;33;33622;-91
2021/04/23 11:07:34;;;;;;;8.20;4.35;;;;;;;19.39;27.68;100356.34;4295708;33;33348;-90
2021/04/23 11:10:10;;;;;;;6.78;4.35;;;;;;;19.87;25.66;100368.38;4284112;33;32622;-93
2021/04/23 11:12:42;;;;;;;6.40;3.30;;;;;;;18.68;25.28;100363.25;4289615;33;34290;-92
2021/04/23 11:15:17;;;;;;;7.47;4.20;;;;;;;18.59;24.05;100364.59;4296070;33;33899;-91
2021/04/23 11:17:54;;;;;;;7.22;3.58;;;;;;;19.33;26.06;100354.53;4302862;33;33079;-91
2021/04/23 11:20:32;;;;;;;9.05;3.87;;;;;;;19.18;25.17;100368.63;4286424;33;33027;-92
2021/04/23 11:23:05;;;;;;;8.20;4.00;;;;;;;18.71;24.42;100365.53;4305636;33;34502;-92
2021/04/23 11:25:54;;;;;;;10.40;3.65;;;;;;;19.22;26.01;100355.28;4302976;33;33746;-95
2021/04/23 11:28:28;;;;;;;6.65;3.80;;;;;;;18.94;27.14;100364.09;4292876;33;34304;-92
2021/04/23 11:32:11;;;;;;;9.93;4.37;;;;;;;19.52;24.32;100369.06;4212980;33;35774;-89
2021/04/23 11:34:49;;;;;;;7.62;3.72;;;;;;;18.51;24.83;100369.28;4250707;33;34175;-94
2021/04/23 11:37:43;;;;;;;8.52;3.35;;;;;;;18.77;26.56;100356.44;4269508;33;34430;-96
2021/04/23 11:40:18;;;;;;;8.30;4.20;;;;;;;19.16;25.75;100361.69;4260481;33;34855;-88
2021/04/23 11:42:55;;;;;;;5.00;3.50;;;;;;;19.60;23.97;100359.66;4273713;33;36054;-94
2021/04/23 11:45:30;;;;;;;8.30;3.70;;;;;;;19.79;26.75;100341.28;4263412;33;32593;-95
2021/04/23 11:48:05;;;;;;;8.00;4.18;;;;;;;18.74;27.44;100361.50;4263747;33;33699;-91
2021/04/23 11:50:46;;;;;;;8.32;3.90;;;;;;;17.75;26.93;100370.25;4248890;33;34803;-94
2021/04/23 11:53:20;;;;;;;6.82;3.47;;;;;;;18.48;26.41;100360.72;4262397;33;32441;-95
2021/04/23 11:55:54;;;;;;;8.55;3.95;;;;;;;18.81;25.06;100349.41;4249599;33;34277;-93
2021/04/23 11:58:40;;;;;;;5.70;3.00;;;;;;;19.16;23.88;100354.34;4251512;33;33959;-92
2021/04/23 12:01:15;;;;;;;7.70;3.15;;;;;;;18.75;25.38;100350.31;4249540;33;34499;-95
2021/04/23 12:03:50;;;;;;;11.82;3.30;;;;;;;18.98;24.37;100362.53;4260587;33;34565;-91
2021/04/23 12:06:26;;;;;;;8.32;2.80;;;;;;;19.17;28.63;100355.97;4260095;33;34766;-91
2021/04/23 12:09:00;;;;;;;12.65;4.10;;;;;;;19.43;23.75;100354.00;4251323;33;35865;-90
2021/04/23 12:11:33;;;;;;;8.52;3.72;;;;;;;19.79;24.93;100355.00;4263440;33;33353;-91
2021/04/23 12:14:07;;;;;;;7.05;3.78;;;;;;;19.91;24.46;100357.75;4267461;33;33927;-91
2021/04/23 12:16:40;;;;;;;10.73;3.58;;;;;;;20.01;24.15;100348.97;4259816;33;34239;-88
2021/04/23 12:19:13;;;;;;;8.10;3.55;;;;;;;19.98;22.85;100360.41;4263075;33;33617;-96
2021/04/23 12:21:54;;;;;;;7.97;4.20;;;;;;;20.03;25.58;100357.78;4252358;33;32706;-93
2021/04/23 12:24:51;;;;;;;6.97;3.55;;;;;;;19.62;25.93;100356.69;4255614;33;37309;-88
2021/04/23 12:27:30;;;;;;;11.23;3.92;;;;;;;18.68;22.64;100353.16;4274854;33;35058;-91
2021/04/23 12:30:03;;;;;;;;;;;;;;;17.97;25.69;100355.22;4251577;33;33286;-93
2021/04/23 12:32:52;;;;;;;8.07;3.55;;;;;;;18.58;25.77;100351.97;4263156;33;33594;-91
2021/04/23 12:35:43;;;;;;;9.48;3.90;;;;;;;19.10;24.84;100366.22;4256890;33;33631;-90
2021/04/23 12:38:42;;;;;;;10.85;3.90;;;;;;;18.89;23.53;100359.25;4264829;33;32822;-96
2021/04/23 12:41:26;;;;;;;4.53;3.47;;;;;;;18.64;25.29;100356.56;4252422;33;34196;-92
2021/04/23 12:44:17;;;;;;;6.32;3.37;;;;;;;19.08;26.13;100362.03;4264097;33;34551;-92